Time;durP1;ratioP1;P1;durP2;ratioP2;P2;SDS_P1;SDS_P2;PMS_P1;PMS_P2;Temp;Humidity;BMP_temperature;BMP_pressure;BME280_temperature;BME280_humidity;BME280_pressure;Samples;Min_cycle;Max_cycle;Signal;HPM_P1;HPM_P2
2021/04/12 00:01:28;;;;;;;;;9.67;8.00;;;;;;;;5027216;28;8818;-80
2021/04/12 00:04:00;;;;;;;;;10.67;9.00;;;;;;;;5027078;28;8891;-80
2021/04/12 00:06:32;;;;;;;;;12.00;12.00;;;;;;;;5020169;28;8847;-79
2021/04/12 00:09:03;;;;;;;;;11.33;9.00;;;;;;;;5020505;28;8883;-80
2021/04/12 00:11:36;;;;;;;;;15.00;10.00;;;;;;;;5021899;28;8895;-80
2021/04/12 00:14:09;;;;;;;;;13.33;10.33;;;;;;;;5023136;28;8909;-80
2021/04/12 00:16:40;;;;;;;;;8.33;7.00;;;;;;;;5022444;28;9637;-79
2021/04/12 00:19:16;;;;;;;;;10.00;8.33;;;;;;;;5021142;28;8868;-81
2021/04/12 00:21:47;;;;;;;;;10.00;10.00;;;;;;;;5020076;28;8879;-80
2021/04/12 00:24:18;;;;;;;;;10.33;8.00;;;;;;;;5016293;28;8851;-80
2021/04/12 00:26:51;;;;;;;;;7.67;7.67;;;;;;;;5019697;28;9002;-77
2021/04/12 00:29:23;;;;;;;;;8.33;8.33;;;;;;;;5026225;28;8856;-81
2021/04/12 00:31:54;;;;;;;;;9.33;9.33;;;;;;;;5019122;28;8854;-79
2021/04/12 00:34:25;;;;;;;;;15.00;9.67;;;;;;;;5021058;28;9638;-80
2021/04/12 00:36:55;;;;;;;;;12.00;10.00;;;;;;;;5019992;28;8922;-80
2021/04/12 00:39:30;;;;;;;;;9.00;9.00;;;;;;;;5019964;28;8962;-80
2021/04/12 00:42:13;;;;;;;;;12.00;12.00;;;;;;;;5021400;28;8999;-80
2021/04/12 00:45:03;;;;;;;;;10.00;10.00;;;;;;;;5019178;28;8871;-80
2021/04/12 00:47:36;;;;;;;;;10.00;10.00;;;;;;;;5021530;28;8884;-81
2021/04/12 00:50:27;;;;;;;;;15.33;10.00;;;;;;;;5022293;28;8974;-80
2021/04/12 00:53:20;;;;;;;;;9.00;9.00;;;;;;;;5020429;28;8901;-79
2021/04/12 00:55:50;;;;;;;;;9.67;9.67;;;;;;;;5021562;28;8891;-80
2021/04/12 00:58:22;;;;;;;;;11.33;9.00;;;;;;;;5020922;28;8851;-83
2021/04/12 01:00:57;;;;;;;;;8.33;8.33;;;;;;;;5014308;28;8844;-82
2021/04/12 01:03:56;;;;;;;;;10.67;9.00;;;;;;;;5020482;28;8855;-82
2021/04/12 01:06:33;;;;;;;;;15.00;10.00;;;;;;;;5001164;28;8901;-81
2021/04/12 01:09:19;;;;;;;;;6.33;6.33;;;;;;;;5021270;28;8894;-79
2021/04/12 01:12:21;;;;;;;;;10.00;8.33;;;;;;;;5026451;28;9685;-80
2021/04/12 01:15:02;;;;;;;;;6.67;6.67;;;;;;;;5019910;28;8872;-79
2021/04/12 01:17:46;;;;;;;;;9.00;9.00;;;;;;;;5025391;28;8867;-79
2021/04/12 01:20:55;;;;;;;;;9.00;9.00;;;;;;;;5025560;28;8878;-77
2021/04/12 01:24:03;;;;;;;;;12.00;12.00;;;;;;;;5015195;28;8871;-78
2021/04/12 01:27:03;;;;;;;;;11.67;9.00;;;;;;;;5011765;28;8887;-79
2021/04/12 01:30:20;;;;;;;;;9.00;9.00;;;;;;;;5019939;28;8867;-80
2021/04/12 01:33:36;;;;;;;;;15.67;13.00;;;;;;;;5019457;28;8828;-80
2021/04/12 01:36:33;;;;;;;;;6.67;5.33;;;;;;;;4941779;28;8887;-81
2021/04/12 01:39:09;;;;;;;;;10.00;10.00;;;;;;;;5028790;28;9933;-79
2021/04/12 01:41:52;;;;;;;;;7.00;7.00;;;;;;;;5023954;28;8987;-80
2021/04/12 01:44:44;;;;;;;;;9.33;9.33;;;;;;;;5022423;28;8966;-78
2021/04/12 01:47:22;;;;;;;;;12.67;10.67;;;;;;;;5024637;28;8868;-79
2021/04/12 01:50:09;;;;;;;;;21.00;13.00;;;;;;;;5021499;28;8883;-77
2021/04/12 01:53:02;;;;;;;;;21.33;16.00;;;;;;;;5025467;28;8880;-79
2021/04/12 01:55:36;;;;;;;;;13.33;12.67;;;;;;;;4991295;28;8998;-79
2021/04/12 01:58:36;;;;;;;;;11.33;11.33;;;;;;;;5022199;28;8965;-78
2021/04/12 02:01:27;;;;;;;;;13.00;11.33;;;;;;;;5019572;28;8914;-79
2021/04/12 02:04:08;;;;;;;;;11.33;11.33;;;;;;;;4978131;28;9277;-80
2021/04/12 02:06:50;;;;;;;;;13.67;12.00;;;;;;;;5017412;28;8860;-77
2021/04/12 02:09:30;;;;;;;;;7.00;7.00;;;;;;;;5024386;28;8923;-78
2021/04/12 02:12:05;;;;;;;;;10.00;10.00;;;;;;;;5023625;28;8896;-79
2021/04/12 02:14:41;;;;;;;;;10.67;10.67;;;;;;;;5019641;28;8908;-78
2021/04/12 02:17:15;;;;;;;;;8.67;8.67;;;;;;;;5023696;28;8872;-79
2021/04/12 02:20:00;;;;;;;;;10.00;10.00;;;;;;;;5021771;28;8910;-78
2021/04/12 02:23:02;;;;;;;;;12.00;9.00;;;;;;;;5024126;28;8883;-78
2021/04/12 02:25:36;;;;;;;;;8.67;7.00;;;;;;;;4990074;28;8871;-79
2021/04/12 02:28:14;;;;;;;;;13.00;10.67;;;;;;;;5029278;28;8905;-78
2021/04/12 02:30:46;;;;;;;;;13.00;10.67;;;;;;;;5018083;28;8816;-80
2021/04/12 02:33:21;;;;;;;;;12.00;9.00;;;;;;;;5022966;28;8890;-82
2021/04/12 02:36:01;;;;;;;;;12.67;10.00;;;;;;;;5019258;28;8883;-81
2021/04/12 02:38:44;;;;;;;;;9.67;9.67;;;;;;;;5026256;28;8888;-81
2021/04/12 02:41:51;;;;;;;;;14.33;8.33;;;;;;;;5018234;28;8884;-82
2021/04/12 02:44:35;;;;;;;;;11.33;10.00;;;;;;;;5012391;28;8864;-80
2021/04/12 02:47:22;;;;;;;;;10.00;10.00;;;;;;;;5025958;28;9015;-78
2021/04/12 02:49:54;;;;;;;;;6.00;6.00;;;;;;;;5022390;28;8896;-78
2021/04/12 02:52:28;;;;;;;;;10.00;10.00;;;;;;;;5035350;28;8880;-77
2021/04/12 02:55:25;;;;;;;;;10.00;10.00;;;;;;;;5028263;28;8892;-79
2021/04/12 02:58:43;;;;;;;;;11.00;10.00;;;;;;;;5016435;28;8946;-75
2021/04/12 03:01:25;;;;;;;;;9.00;9.00;;;;;;;;4960428;28;8832;-78
2021/04/12 03:04:05;;;;;;;;;12.67;12.67;;;;;;;;5021763;28;8986;-78
2021/04/12 03:07:08;;;;;;;;;13.67;12.67;;;;;;;;5013855;28;8933;-81
2021/04/12 03:09:46;;;;;;;;;12.33;9.67;;;;;;;;5021249;28;8863;-78
2021/04/12 03:12:41;;;;;;;;;7.00;7.00;;;;;;;;5020965;28;8894;-77
2021/04/12 03:15:47;;;;;;;;;13.67;13.67;;;;;;;;5022648;28;8941;-78
2021/04/12 03:18:47;;;;;;;;;12.33;11.33;;;;;;;;5026732;28;8887;-79
2021/04/12 03:21:56;;;;;;;;;7.67;6.67;;;;;;;;5006190;28;8876;-78
2021/04/12 03:24:26;;;;;;;;;8.33;6.67;;;;;;;;5017547;28;8877;-80
2021/04/12 03:27:14;;;;;;;;;16.00;12.67;;;;;;;;5021692;28;8982;-80
2021/04/12 03:29:51;;;;;;;;;13.67;12.00;;;;;;;;5021649;28;8934;-78
2021/04/12 03:32:34;;;;;;;;;15.33;12.67;;;;;;;;5015816;28;8823;-79
2021/04/12 03:35:07;;;;;;;;;19.67;15.67;;;;;;;;5023767;28;8868;-78
2021/04/12 03:37:42;;;;;;;;;13.00;13.00;;;;;;;;5021722;28;8915;-77
2021/04/12 03:40:20;;;;;;;;;20.67;12.67;;;;;;;;5027567;28;8883;-80
2021/04/12 03:43:04;;;;;;;;;15.33;15.33;;;;;;;;5020813;28;8863;-77
2021/04/12 03:45:47;;;;;;;;;19.67;18.67;;;;;;;;5022735;28;8880;-79
2021/04/12 03:48:39;;;;;;;;;18.33;14.67;;;;;;;;5026075;28;8861;-80
2021/04/12 03:51:43;;;;;;;;;15.00;15.00;;;;;;;;5022199;28;8856;-83
2021/04/12 03:54:29;;;;;;;;;18.00;15.00;;;;;;;;5023626;28;8906;-80
2021/04/12 03:57:44;;;;;;;;;14.67;14.67;;;;;;;;5018190;28;9633;-80
2021/04/12 04:00:38;;;;;;;;;16.00;13.67;;;;;;;;4960408;28;8904;-81
2021/04/12 04:03:33;;;;;;;;;23.33;16.00;;;;;;;;5014949;28;8918;-77
2021/04/12 04:06:34;;;;;;;;;13.33;13.33;;;;;;;;5004669;28;8864;-76
2021/04/12 04:09:39;;;;;;;;;13.67;13.67;;;;;;;;5023920;28;8902;-80
2021/04/12 04:12:13;;;;;;;;;21.33;15.33;;;;;;;;5021898;28;8883;-78
2021/04/12 04:15:09;;;;;;;;;13.00;13.00;;;;;;;;5023672;28;8880;-79
2021/04/12 04:18:07;;;;;;;;;16.33;13.33;;;;;;;;5021334;28;8872;-79
2021/04/12 04:20:52;;;;;;;;;10.67;10.67;;;;;;;;5023041;28;8879;-74
2021/04/12 04:23:46;;;;;;;;;3.67;1.00;;;;;;;;5021651;28;8867;-76
2021/04/12 04:26:40;;;;;;;;;16.00;15.00;;;;;;;;5019925;28;8888;-76
2021/04/12 04:29:33;;;;;;;;;14.33;12.00;;;;;;;;5021610;28;9812;-76
2021/04/12 04:32:37;;;;;;;;;15.67;13.00;;;;;;;;5029051;28;8834;-75
2021/04/12 04:35:20;;;;;;;;;10.00;10.00;;;;;;;;5017602;28;8868;-76
2021/04/12 04:38:17;;;;;;;;;18.00;11.33;;;;;;;;5022076;28;8876;-75
2021/04/12 04:40:57;;;;;;;;;13.00;12.00;;;;;;;;5021649;28;8970;-74
2021/04/12 04:43:40;;;;;;;;;12.67;12.67;;;;;;;;5019407;28;8872;-77
2021/04/12 04:46:19;;;;;;;;;13.00;13.00;;;;;;;;5020476;28;8875;-76
2021/04/12 04:48:57;;;;;;;;;12.67;12.67;;;;;;;;5021182;28;8883;-75
2021/04/12 04:51:58;;;;;;;;;15.00;15.00;;;;;;;;5029764;28;8871;-76
2021/04/12 04:54:42;;;;;;;;;12.67;11.33;;;;;;;;4979215;28;8955;-76
2021/04/12 04:57:36;;;;;;;;;12.67;12.67;;;;;;;;5016261;28;8945;-75
2021/04/12 05:00:22;;;;;;;;;21.67;16.00;;;;;;;;5019908;28;8891;-74
2021/04/12 05:03:27;;;;;;;;;16.00;16.00;;;;;;;;5021750;28;8828;-87
2021/04/12 05:06:21;;;;;;;;;18.00;15.33;;;;;;;;5009555;28;8933;-73
2021/04/12 05:09:19;;;;;;;;;13.00;13.00;;;;;;;;5018791;28;8899;-73
2021/04/12 05:12:17;;;;;;;;;16.67;16.00;;;;;;;;5017093;28;8998;-72
2021/04/12 05:15:23;;;;;;;;;17.33;16.67;;;;;;;;5014363;28;8906;-77
2021/04/12 05:18:32;;;;;;;;;24.00;17.67;;;;;;;;5020165;28;8883;-72
2021/04/12 05:21:25;;;;;;;;;18.00;15.33;;;;;;;;5019928;28;8880;-77
2021/04/12 05:24:13;;;;;;;;;16.67;13.00;;;;;;;;5021506;28;8878;-72
2021/04/12 05:27:00;;;;;;;;;16.67;14.33;;;;;;;;5015320;28;9641;-76
2021/04/12 05:29:57;;;;;;;;;17.33;13.00;;;;;;;;5019627;28;8942;-71
2021/04/12 05:32:39;;;;;;;;;16.00;16.00;;;;;;;;5014624;28;8881;-74
2021/04/12 05:35:30;;;;;;;;;20.67;20.67;;;;;;;;5028832;28;9665;-74
2021/04/12 05:38:22;;;;;;;;;22.00;19.67;;;;;;;;5020018;28;9006;-73
2021/04/12 05:41:15;;;;;;;;;20.33;18.67;;;;;;;;5019604;28;8911;-74
2021/04/12 05:44:21;;;;;;;;;18.00;18.00;;;;;;;;5010923;28;8884;-73
2021/04/12 05:47:20;;;;;;;;;15.33;12.00;;;;;;;;4974049;28;9511;-74
2021/04/12 05:50:13;;;;;;;;;21.00;16.67;;;;;;;;5019815;28;8933;-75
2021/04/12 05:53:12;;;;;;;;;24.00;21.00;;;;;;;;5018007;28;8888;-75
2021/04/12 05:56:14;;;;;;;;;19.67;19.67;;;;;;;;4996857;28;8994;-73
2021/04/12 05:58:49;;;;;;;;;18.33;18.33;;;;;;;;4987214;28;8864;-73
2021/04/12 06:01:41;;;;;;;;;22.67;19.67;;;;;;;;5015093;28;8816;-74
2021/04/12 06:04:17;;;;;;;;;17.33;16.67;;;;;;;;5022638;28;8961;-75
2021/04/12 06:07:28;;;;;;;;;23.67;19.67;;;;;;;;5023263;28;8876;-74
2021/04/12 06:10:17;;;;;;;;;19.00;19.00;;;;;;;;4910563;28;8868;-74
2021/04/12 06:13:13;;;;;;;;;24.33;24.00;;;;;;;;5003425;28;9062;-73
2021/04/12 06:16:02;;;;;;;;;25.33;21.00;;;;;;;;5020853;28;8864;-73
2021/04/12 06:19:09;;;;;;;;;21.00;16.00;;;;;;;;5010696;28;8898;-75
2021/04/12 06:22:09;;;;;;;;;18.33;18.33;;;;;;;;5023508;28;8880;-73
2021/04/12 06:24:51;;;;;;;;;24.67;24.67;;;;;;;;5011325;28;9014;-73
2021/04/12 06:28:04;;;;;;;;;22.67;21.00;;;;;;;;5021033;28;8891;-72
2021/04/12 06:30:50;;;;;;;;;22.67;21.67;;;;;;;;4959314;28;8823;-75
2021/04/12 06:33:45;;;;;;;;;25.67;24.00;;;;;;;;5023674;28;8847;-75
2021/04/12 06:36:49;;;;;;;;;19.00;16.00;;;;;;;;5021714;28;8880;-74
2021/04/12 06:39:51;;;;;;;;;18.67;18.67;;;;;;;;5020328;28;8872;-73
2021/04/12 06:43:02;;;;;;;;;32.33;23.33;;;;;;;;5013244;28;9661;-72
2021/04/12 06:46:08;;;;;;;;;23.33;23.33;;;;;;;;5011643;28;8901;-73
2021/04/12 06:49:03;;;;;;;;;20.33;20.00;;;;;;;;4998915;28;8921;-73
2021/04/12 06:52:18;;;;;;;;;26.00;26.00;;;;;;;;5022850;28;8962;-74
2021/04/12 06:55:04;;;;;;;;;23.00;21.67;;;;;;;;5022594;28;8966;-75
2021/04/12 06:58:09;;;;;;;;;20.00;19.33;;;;;;;;5022327;28;8884;-73
2021/04/12 07:01:05;;;;;;;;;22.67;19.00;;;;;;;;5017624;28;8839;-73
2021/04/12 07:04:09;;;;;;;;;19.33;16.33;;;;;;;;5014868;28;8868;-71
2021/04/12 07:07:05;;;;;;;;;22.33;20.67;;;;;;;;5021616;28;8900;-73
2021/04/12 07:09:43;;;;;;;;;21.33;17.67;;;;;;;;5022851;28;9030;-76
2021/04/12 07:12:49;;;;;;;;;20.67;16.67;;;;;;;;5014824;28;11626;-74
2021/04/12 07:15:57;;;;;;;;;18.33;17.67;;;;;;;;5015155;28;11598;-74
2021/04/12 07:19:07;;;;;;;;;19.00;19.00;;;;;;;;5022147;28;12435;-74
2021/04/12 07:22:05;;;;;;;;;18.33;18.33;;;;;;;;5010991;28;11653;-75
2021/04/12 07:25:15;;;;;;;;;23.33;17.00;;;;;;;;5020251;28;11646;-74
2021/04/12 07:28:30;;;;;;;;;20.00;20.00;;;;;;;;4960329;28;11636;-73
2021/04/12 07:31:30;;;;;;;;;21.33;18.67;;;;;;;;5019818;28;11530;-71
2021/04/12 07:34:34;;;;;;;;;23.50;21.75;;;;;;;;5019469;28;12390;-73
2021/04/12 07:37:31;;;;;;;;;20.75;20.25;;;;;;;;4991939;28;11685;-73
2021/04/12 07:40:49;;;;;;;;;26.00;21.75;;;;;;;;5021426;28;11598;-73
2021/04/12 07:44:07;;;;;;;;;28.50;24.75;;;;;;;;5022063;28;11619;-75
2021/04/12 07:46:58;;;;;;;;;24.75;23.00;;;;;;;;5012692;28;11617;-72
2021/04/12 07:49:57;;;;;;;;;23.00;22.75;;;;;;;;5018778;28;11610;-74
2021/04/12 07:53:11;;;;;;;;;25.25;23.00;;;;;;;;5015884;28;11639;-75
2021/04/12 07:56:15;;;;;;;;;26.50;21.50;;;;;;;;4996445;28;11606;-74
2021/04/12 07:59:12;;;;;;;;;20.00;18.50;;;;;;;;4972384;28;11619;-74
2021/04/12 08:02:13;;;;;;;;;27.00;22.75;;;;;;;;5012377;28;11542;-74
2021/04/12 08:05:17;;;;;;;;;21.75;19.00;;;;;;;;5015322;28;11573;-74
2021/04/12 08:08:32;;;;;;;;;19.50;19.50;;;;;;;;5017797;28;11699;-74
2021/04/12 08:11:29;;;;;;;;;22.25;18.50;;;;;;;;4938539;28;11691;-74
2021/04/12 08:14:25;;;;;;;;;20.00;16.50;;;;;;;;5016519;28;11595;-74
2021/04/12 08:17:28;;;;;;;;;23.00;20.00;;;;;;;;5018348;28;11625;-74
2021/04/12 08:20:29;;;;;;;;;23.00;19.00;;;;;;;;5016796;28;12310;-75
2021/04/12 08:23:44;;;;;;;;;19.00;19.00;;;;;;;;5015762;28;11721;-73
2021/04/12 08:26:48;;;;;;;;;24.75;22.75;;;;;;;;4957705;28;11631;-75
2021/04/12 08:30:07;;;;;;;;;23.00;20.25;;;;;;;;4956346;28;11745;-75
2021/04/12 08:33:13;;;;;;;;;23.00;19.25;;;;;;;;5015364;28;11537;-76
2021/04/12 08:36:28;;;;;;;;;18.00;18.00;;;;;;;;5019253;28;13162;-75
2021/04/12 08:39:35;;;;;;;;;16.75;16.75;;;;;;;;4983708;28;12113;-77
2021/04/12 08:42:24;;;;;;;;;21.50;20.00;;;;;;;;5016822;28;11585;-76
2021/04/12 08:45:21;;;;;;;;;23.75;21.50;;;;;;;;5017141;28;11610;-75
2021/04/12 08:48:16;;;;;;;;;26.50;24.25;;;;;;;;4984204;28;11606;-74
2021/04/12 08:51:28;;;;;;;;;16.00;14.50;;;;;;;;5016149;28;11660;-75
2021/04/12 08:54:29;;;;;;;;;22.50;19.75;;;;;;;;5018455;28;11626;-75
2021/04/12 08:57:30;;;;;;;;;20.00;17.50;;;;;;;;4975806;28;11602;-75
2021/04/12 09:00:33;;;;;;;;;19.25;19.25;;;;;;;;5014785;28;11757;-75
2021/04/12 09:03:29;;;;;;;;;18.75;16.25;;;;;;;;5001231;28;11685;-72
2021/04/12 09:06:40;;;;;;;;;23.25;18.25;;;;;;;;5013919;28;12483;-75
2021/04/12 09:09:44;;;;;;;;;14.25;12.00;;;;;;;;4960250;28;11635;-75
2021/04/12 09:12:46;;;;;;;;;13.75;13.75;;;;;;;;4998606;28;11535;-75
2021/04/12 09:15:50;;;;;;;;;11.50;9.75;;;;;;;;5015950;28;11537;-74
2021/04/12 09:18:45;;;;;;;;;10.00;10.00;;;;;;;;5018788;28;11529;-75
2021/04/12 09:21:29;;;;;;;;;13.75;13.75;;;;;;;;5016296;28;11525;-74
2021/04/12 09:24:23;;;;;;;;;16.75;12.25;;;;;;;;5018253;28;11575;-76
2021/04/12 09:27:18;;;;;;;;;13.25;12.75;;;;;;;;5017095;28;11513;-73
2021/04/12 09:30:00;;;;;;;;;16.25;14.50;;;;;;;;4997348;28;11546;-76
2021/04/12 09:32:51;;;;;;;;;14.50;12.75;;;;;;;;5017890;28;11523;-76
2021/04/12 09:35:40;;;;;;;;;19.25;17.00;;;;;;;;5018158;28;11533;-76
2021/04/12 09:38:43;;;;;;;;;19.25;18.00;;;;;;;;5019535;28;11554;-74
2021/04/12 09:41:40;;;;;;;;;14.75;13.00;;;;;;;;5033388;28;11565;-75
2021/04/12 09:44:41;;;;;;;;;14.50;14.50;;;;;;;;5018422;28;12603;-75
2021/04/12 09:47:40;;;;;;;;;13.25;13.25;;;;;;;;4984496;28;12301;-74
2021/04/12 09:51:05;;;;;;;;;13.50;13.00;;;;;;;;5020751;28;11293;-74
2021/04/12 09:54:13;;;;;;;;;12.00;12.00;;;;;;;;4973755;28;11262;-74
2021/04/12 09:57:30;;;;;;;;;13.75;13.75;;;;;;;;4984965;28;10964;-75
2021/04/12 10:00:06;;;;;;;;;12.75;12.75;;;;;;;;5018477;28;10975;-75
2021/04/12 10:03:10;;;;;;;;;11.00;8.75;;;;;;;;5021052;28;11094;-72
2021/04/12 10:06:17;;;;;;;;;17.25;13.50;;;;;;;;4952300;28;10990;-75
2021/04/12 10:08:52;;;;;;;;;14.00;12.75;;;;;;;;5018370;28;11237;-74
2021/04/12 10:11:22;;;;;;;;;13.75;13.25;;;;;;;;5020508;28;10867;-76
2021/04/12 10:13:57;;;;;;;;;13.75;13.75;;;;;;;;5019800;28;10848;-75
2021/04/12 10:16:27;;;;;;;;;12.25;12.25;;;;;;;;5022432;28;10763;-75
2021/04/12 10:19:12;;;;;;;;;9.00;9.00;;;;;;;;5020934;28;10687;-74
2021/04/12 10:21:46;;;;;;;;;7.50;7.50;;;;;;;;5021023;28;11261;-76
2021/04/12 10:24:18;;;;;;;;;10.50;10.50;;;;;;;;5022915;28;10435;-74
2021/04/12 10:26:49;;;;;;;;;10.25;10.25;;;;;;;;5013414;28;10360;-76
2021/04/12 10:29:19;;;;;;;;;11.50;11.50;;;;;;;;5022469;28;10424;-75
2021/04/12 10:31:53;;;;;;;;;9.25;9.25;;;;;;;;5021383;28;10355;-74
2021/04/12 10:34:26;;;;;;;;;14.50;11.75;;;;;;;;5023496;28;11012;-75
2021/04/12 10:37:09;;;;;;;;;14.25;13.25;;;;;;;;5018520;28;10458;-74
2021/04/12 10:39:43;;;;;;;;;9.25;9.25;;;;;;;;5020521;28;10696;-75
2021/04/12 10:42:26;;;;;;;;;9.00;9.00;;;;;;;;5023719;28;10507;-74
2021/04/12 10:45:03;;;;;;;;;8.25;8.25;;;;;;;;5027781;28;10547;-76
2021/04/12 10:47:40;;;;;;;;;8.25;8.25;;;;;;;;5022127;28;10286;-76
2021/04/12 10:50:19;;;;;;;;;8.00;8.00;;;;;;;;5021529;28;10660;-74
2021/04/12 10:53:21;;;;;;;;;10.50;10.50;;;;;;;;5020940;28;10390;-75
2021/04/12 10:55:54;;;;;;;;;4.00;4.00;;;;;;;;5017326;28;10440;-75
2021/04/12 10:58:30;;;;;;;;;12.50;12.50;;;;;;;;5021582;28;11138;-74
2021/04/12 11:01:14;;;;;;;;;12.00;11.00;;;;;;;;5024422;28;11173;-74
2021/04/12 11:03:53;;;;;;;;;9.00;9.00;;;;;;;;5023035;28;10458;-76
2021/04/12 11:06:31;;;;;;;;;15.00;13.50;;;;;;;;5018827;28;10353;-77
2021/04/12 11:09:09;;;;;;;;;6.75;6.75;;;;;;;;5019417;28;10280;-76
2021/04/12 11:11:42;;;;;;;;;7.25;7.25;;;;;;;;5021405;28;10092;-75
2021/04/12 11:14:20;;;;;;;;;9.00;8.00;;;;;;;;5019031;28;10195;-78
2021/04/12 11:16:51;;;;;;;;;11.00;9.00;;;;;;;;5020616;28;10332;-74
2021/04/12 11:19:22;;;;;;;;;9.50;9.50;;;;;;;;5019089;28;10280;-72
2021/04/12 11:22:21;;;;;;;;;10.25;8.25;;;;;;;;5022375;28;10196;-74
2021/04/12 11:24:57;;;;;;;;;9.25;9.25;;;;;;;;5018939;28;10282;-72
2021/04/12 11:28:06;;;;;;;;;8.00;8.00;;;;;;;;5020387;28;10753;-72
2021/04/12 11:30:40;;;;;;;;;8.25;8.25;;;;;;;;4983230;28;9744;-72
2021/04/12 11:33:33;;;;;;;;;7.75;7.75;;;;;;;;5022302;28;9851;-75
2021/04/12 11:36:09;;;;;;;;;6.50;6.50;;;;;;;;5014800;28;9734;-73
2021/04/12 11:38:42;;;;;;;;;8.75;7.75;;;;;;;;5025593;28;9656;-73
2021/04/12 11:41:13;;;;;;;;;9.00;7.50;;;;;;;;5019650;28;9788;-72
2021/04/12 11:43:42;;;;;;;;;8.50;8.50;;;;;;;;5022046;28;9889;-73
2021/04/12 11:46:26;;;;;;;;;8.25;8.25;;;;;;;;5019076;28;9943;-73
2021/04/12 11:49:01;;;;;;;;;9.00;9.00;;;;;;;;5020583;28;10106;-74
2021/04/12 11:51:36;;;;;;;;;9.25;8.50;;;;;;;;5021204;28;10036;-74
2021/04/12 11:54:04;;;;;;;;;10.25;10.25;;;;;;;;5019351;28;10077;-76
2021/04/12 11:56:45;;;;;;;;;20.25;20.25;;;;;;;;5020011;28;10587;-75
2021/04/12 11:59:20;;;;;;;;;8.75;8.75;;;;;;;;5018605;28;10202;-74
2021/04/12 12:01:52;;;;;;;;;14.25;11.75;;;;;;;;5019037;28;9902;-73
2021/04/12 12:04:38;;;;;;;;;11.00;9.50;;;;;;;;5021621;28;9668;-74
2021/04/12 12:07:19;;;;;;;;;13.25;9.50;;;;;;;;5018863;28;9652;-74
2021/04/12 12:09:51;;;;;;;;;8.00;8.00;;;;;;;;5009675;28;9589;-77
2021/04/12 12:12:35;;;;;;;;;10.50;8.75;;;;;;;;5020397;28;9544;-77
2021/04/12 12:15:14;;;;;;;;;9.00;8.67;;;;;;;;5018604;28;9575;-78
2021/04/12 12:17:45;;;;;;;;;7.00;7.00;;;;;;;;5011138;28;9494;-75
2021/04/12 12:20:19;;;;;;;;;7.00;7.00;;;;;;;;5019099;28;9505;-78
2021/04/12 12:22:55;;;;;;;;;15.25;10.75;;;;;;;;5020114;28;9410;-75
2021/04/12 12:25:39;;;;;;;;;9.00;9.00;;;;;;;;5018706;28;9494;-78
2021/04/12 12:28:16;;;;;;;;;8.75;8.75;;;;;;;;5019126;28;9530;-77
2021/04/12 12:30:52;;;;;;;;;9.00;9.00;;;;;;;;5019709;28;9490;-78
2021/04/12 12:33:26;;;;;;;;;7.00;7.00;;;;;;;;5018488;28;9480;-79
2021/04/12 12:36:04;;;;;;;;;2.75;2.75;;;;;;;;5016651;28;9564;-80
2021/04/12 12:38:48;;;;;;;;;7.00;5.00;;;;;;;;5021261;28;10685;-71
2021/04/12 12:41:27;;;;;;;;;7.33;7.33;;;;;;;;5014119;28;9485;-72
2021/04/12 12:44:00;;;;;;;;;8.00;8.00;;;;;;;;5021134;28;9494;-76
2021/04/12 12:46:30;;;;;;;;;7.75;7.75;;;;;;;;5019453;28;9441;-75
2021/04/12 12:49:01;;;;;;;;;10.25;8.50;;;;;;;;5021044;28;9546;-77
2021/04/12 12:51:31;;;;;;;;;7.50;7.50;;;;;;;;5019567;28;9554;-75
2021/04/12 12:54:03;;;;;;;;;7.00;7.00;;;;;;;;5010160;28;9496;-79
2021/04/12 12:56:34;;;;;;;;;5.00;5.00;;;;;;;;5022047;28;9717;-77
2021/04/12 12:59:03;;;;;;;;;6.75;6.75;;;;;;;;5020494;28;9553;-78
2021/04/12 13:01:33;;;;;;;;;7.75;7.75;;;;;;;;5020505;28;10703;-77
2021/04/12 13:04:13;;;;;;;;;6.25;6.25;;;;;;;;5020012;28;10123;-77
2021/04/12 13:06:41;;;;;;;;;9.00;9.00;;;;;;;;5019831;28;10139;-75
2021/04/12 13:09:23;;;;;;;;;6.75;6.25;;;;;;;;5020326;28;10130;-77
2021/04/12 13:11:51;;;;;;;;;7.00;7.00;;;;;;;;5014311;28;10260;-77
2021/04/12 13:14:33;;;;;;;;;7.75;7.75;;;;;;;;5019047;28;10143;-77
2021/04/12 13:17:02;;;;;;;;;8.00;7.00;;;;;;;;5019087;28;10192;-77
2021/04/12 13:19:45;;;;;;;;;8.75;8.75;;;;;;;;5019586;28;10284;-76
2021/04/12 13:22:20;;;;;;;;;7.00;7.00;;;;;;;;5010006;28;10238;-77
2021/04/12 13:24:48;;;;;;;;;7.75;7.75;;;;;;;;5019663;28;10343;-77
2021/04/12 13:27:18;;;;;;;;;13.25;11.00;;;;;;;;5018833;28;10332;-76
2021/04/12 13:29:48;;;;;;;;;12.00;9.50;;;;;;;;5016464;28;10497;-78
2021/04/12 13:32:20;;;;;;;;;7.50;7.50;;;;;;;;5020374;28;10452;-76
2021/04/12 13:34:50;;;;;;;;;9.50;9.50;;;;;;;;5018164;28;10396;-79
2021/04/12 13:37:22;;;;;;;;;8.25;8.25;;;;;;;;5016834;28;10407;-77
2021/04/12 13:39:52;;;;;;;;;9.25;9.25;;;;;;;;5020510;28;10241;-80
2021/04/12 13:42:25;;;;;;;;;9.25;9.25;;;;;;;;5019266;28;10351;-77
2021/04/12 13:44:55;;;;;;;;;7.00;7.00;;;;;;;;5020794;28;10163;-77
2021/04/12 13:47:30;;;;;;;;;8.25;7.25;;;;;;;;5019447;28;9948;-78
2021/04/12 13:50:04;;;;;;;;;12.00;10.50;;;;;;;;5018990;28;10178;-77
2021/04/12 13:52:35;;;;;;;;;7.00;7.00;;;;;;;;5017897;28;10055;-77
2021/04/12 13:55:11;;;;;;;;;9.00;8.25;;;;;;;;5019649;28;10557;-78
2021/04/12 13:57:44;;;;;;;;;13.00;9.00;;;;;;;;5019577;28;9893;-79
2021/04/12 14:00:25;;;;;;;;;9.00;9.00;;;;;;;;5018701;28;9968;-79
2021/04/12 14:02:58;;;;;;;;;12.00;9.75;;;;;;;;5019141;28;9979;-78
2021/04/12 14:05:28;;;;;;;;;10.00;9.00;;;;;;;;5016811;28;9872;-73
2021/04/12 14:08:05;;;;;;;;;8.50;8.50;;;;;;;;5018807;28;10155;-79
2021/04/12 14:10:38;;;;;;;;;6.00;6.00;;;;;;;;5015469;28;9970;-77
2021/04/12 14:13:12;;;;;;;;;6.00;6.00;;;;;;;;5018587;28;9961;-77
2021/04/12 14:15:50;;;;;;;;;6.50;4.00;;;;;;;;5018537;28;9921;-74
2021/04/12 14:18:31;;;;;;;;;4.50;4.25;;;;;;;;5018322;28;9861;-74
2021/04/12 14:21:09;;;;;;;;;6.00;6.00;;;;;;;;5018829;28;9961;-75
2021/04/12 14:23:45;;;;;;;;;4.25;4.25;;;;;;;;5022798;28;10789;-77
2021/04/12 14:26:16;;;;;;;;;3.00;3.00;;;;;;;;5019587;28;10842;-75
2021/04/12 14:28:46;;;;;;;;;3.00;3.00;;;;;;;;5020302;28;10047;-74
2021/04/12 14:31:24;;;;;;;;;2.50;2.50;;;;;;;;5019676;28;10102;-73
2021/04/12 14:33:54;;;;;;;;;4.00;4.00;;;;;;;;5021467;28;10207;-73
2021/04/12 14:36:24;;;;;;;;;3.75;3.75;;;;;;;;5020385;28;10333;-74
2021/04/12 14:38:54;;;;;;;;;3.75;3.75;;;;;;;;5022839;28;10463;-74
2021/04/12 14:41:23;;;;;;;;;6.00;6.00;;;;;;;;5022518;28;10786;-74
2021/04/12 14:43:57;;;;;;;;;2.50;2.50;;;;;;;;5019664;28;10654;-74
2021/04/12 14:46:27;;;;;;;;;4.25;4.25;;;;;;;;5023111;28;10633;-74
2021/04/12 14:48:56;;;;;;;;;4.25;4.25;;;;;;;;5022288;28;10893;-73
2021/04/12 14:51:25;;;;;;;;;3.25;3.25;;;;;;;;5021213;28;11532;-74
2021/04/12 14:53:57;;;;;;;;;5.50;3.25;;;;;;;;5019416;28;10803;-73
2021/04/12 14:56:26;;;;;;;;;3.50;3.25;;;;;;;;5020571;28;11915;-74
2021/04/12 14:58:58;;;;;;;;;1.00;1.00;;;;;;;;5021762;28;10755;-75
2021/04/12 15:01:30;;;;;;;;;3.00;3.00;;;;;;;;5021285;28;10566;-74
2021/04/12 15:04:01;;;;;;;;;1.00;1.00;;;;;;;;5022085;28;10904;-74
2021/04/12 15:06:32;;;;;;;;;2.25;2.25;;;;;;;;5022657;28;10728;-73
2021/04/12 15:09:03;;;;;;;;;3.00;1.75;;;;;;;;5022079;28;10798;-74
2021/04/12 15:11:37;;;;;;;;;1.75;1.75;;;;;;;;5020733;28;10709;-74
2021/04/12 15:14:07;;;;;;;;;2.00;2.00;;;;;;;;5017586;28;10646;-74
2021/04/12 15:16:44;;;;;;;;;6.00;6.00;;;;;;;;5017275;28;10651;-74
2021/04/12 15:19:25;;;;;;;;;4.50;3.00;;;;;;;;5020845;28;10762;-74
2021/04/12 15:21:57;;;;;;;;;2.25;2.25;;;;;;;;5020714;28;10578;-74
2021/04/12 15:24:31;;;;;;;;;3.50;3.50;;;;;;;;5022072;28;10484;-73
2021/04/12 15:26:59;;;;;;;;;3.00;3.00;;;;;;;;5019210;28;10566;-73
2021/04/12 15:29:44;;;;;;;;;6.00;6.00;;;;;;;;5015288;28;10501;-73
2021/04/12 15:32:22;;;;;;;;;12.25;12.25;;;;;;;;5022806;28;10620;-73
2021/04/12 15:34:51;;;;;;;;;8.50;8.00;;;;;;;;5019425;28;11495;-75
2021/04/12 15:37:35;;;;;;;;;5.50;3.00;;;;;;;;5021640;28;10499;-74
2021/04/12 15:40:22;;;;;;;;;10.50;7.25;;;;;;;;5015905;28;10425;-74
2021/04/12 15:42:52;;;;;;;;;12.75;10.25;;;;;;;;5018448;28;10436;-74
2021/04/12 15:45:24;;;;;;;;;10.50;7.75;;;;;;;;5020825;28;10552;-73
2021/04/12 15:47:53;;;;;;;;;8.75;6.00;;;;;;;;5018057;28;10682;-71
2021/04/12 15:50:26;;;;;;;;;15.25;15.25;;;;;;;;5020449;28;10996;-75
2021/04/12 15:52:56;;;;;;;;;15.75;14.75;;;;;;;;5020968;28;11172;-75
2021/04/12 15:55:27;;;;;;;;;9.25;9.25;;;;;;;;5019965;28;11145;-72
2021/04/12 15:58:02;;;;;;;;;7.00;7.00;;;;;;;;5020340;28;10914;-72
2021/04/12 16:00:31;;;;;;;;;12.00;10.00;;;;;;;;5022401;28;10795;-72
2021/04/12 16:03:05;;;;;;;;;6.75;5.25;;;;;;;;5015919;28;11099;-72
2021/04/12 16:05:39;;;;;;;;;8.75;8.00;;;;;;;;5012056;28;11125;-73
2021/04/12 16:08:10;;;;;;;;;6.00;6.00;;;;;;;;5019532;28;11274;-73
2021/04/12 16:10:47;;;;;;;;;5.75;5.75;;;;;;;;5012855;28;11626;-73
2021/04/12 16:13:23;;;;;;;;;18.50;16.00;;;;;;;;5020974;28;11494;-74
2021/04/12 16:15:54;;;;;;;;;6.00;6.00;;;;;;;;5019474;28;11521;-73
2021/04/12 16:18:29;;;;;;;;;16.75;13.00;;;;;;;;5019973;28;11831;-73
2021/04/12 16:21:00;;;;;;;;;17.75;17.25;;;;;;;;5020930;28;11540;-73
2021/04/12 16:23:32;;;;;;;;;7.50;3.00;;;;;;;;5018597;28;11546;-73